ADDS TAF Data INFO
IDs: Format: Raw Decoded Include METARs

Data at: 1930 UTC 17 Jul 2018

KMRB 171853Z 02008KT 10SM SCT100 28/21 A2984 RMK AO2 RAE03 SLP097 P0000 T02830211

KMRB 171729Z 1718/1818 28006KT 4SM -SHRA VCTS BKN040CB
  TEMPO 1718/1720 30010G20KT 2SM TSRA
  FM172000 30006KT P6SM BKN040
  FM172300 31006KT P6SM SCT045
  FM180400 33007KT P6SM FEW250